createdAt,value
2017-12-17T00:00:49.434Z,86.9
2017-12-17T00:01:52.780Z,87.2
2017-12-17T00:03:01.603Z,87.3
2017-12-17T00:04:04.863Z,87.1
2017-12-17T00:05:09.915Z,87
2017-12-17T00:06:13.471Z,86.9
2017-12-17T00:07:16.961Z,86.9
2017-12-17T00:08:20.326Z,87.1
2017-12-17T00:09:23.791Z,87.1
2017-12-17T00:10:27.234Z,86.9
2017-12-17T00:11:30.630Z,86.8
2017-12-17T00:12:34.798Z,86.8
2017-12-17T00:13:42.678Z,86.7
2017-12-17T00:14:46.492Z,86.6
2017-12-17T00:15:49.804Z,86.7
2017-12-17T00:16:53.892Z,86.6
2017-12-17T00:17:57.375Z,86.5
2017-12-17T00:19:00.874Z,86.4
2017-12-17T00:20:05.250Z,86.2
2017-12-17T00:21:08.348Z,86.3
2017-12-17T00:22:11.660Z,86.3
2017-12-17T00:23:15.137Z,86.5
2017-12-17T00:24:22.021Z,86.6
2017-12-17T00:25:26.095Z,86.3
2017-12-17T00:26:29.632Z,86.3
2017-12-17T00:27:33.717Z,86.3
2017-12-17T00:28:37.601Z,86.1
2017-12-17T00:29:41.692Z,85.9
2017-12-17T00:30:45.073Z,86
2017-12-17T00:31:48.367Z,86.1
2017-12-17T00:32:52.391Z,86
2017-12-17T00:33:55.817Z,85.9
2017-12-17T00:35:03.773Z,85.8
2017-12-17T00:36:07.829Z,85.9
2017-12-17T00:37:11.275Z,85.9
2017-12-17T00:38:14.661Z,86.1
2017-12-17T00:39:18.360Z,86.3
2017-12-17T00:40:21.796Z,86.5
2017-12-17T00:41:25.355Z,86.7
2017-12-17T00:42:28.761Z,86.8
2017-12-17T00:43:32.150Z,86.6
2017-12-17T00:44:35.830Z,86.7
2017-12-17T00:45:43.218Z,86.9
2017-12-17T00:46:46.647Z,86.7
2017-12-17T00:47:50.036Z,86.9
2017-12-17T00:48:53.440Z,86.9
2017-12-17T00:49:57.034Z,86.7
2017-12-17T00:51:00.501Z,86.6
2017-12-17T00:52:03.979Z,86.6
2017-12-17T00:53:08.003Z,86.9
2017-12-17T00:54:11.343Z,86.9
2017-12-17T00:55:14.994Z,86.6
2017-12-17T00:56:22.018Z,86.6
2017-12-17T00:57:27.528Z,86.6
2017-12-17T00:58:31.036Z,86.7
2017-12-17T00:59:34.567Z,86.9
2017-12-17T01:00:38.062Z,86.9
2017-12-17T01:01:41.325Z,86.7
2017-12-17T01:02:44.771Z,86.7
2017-12-17T01:03:48.265Z,87
2017-12-17T01:04:52.682Z,86.9
2017-12-17T01:05:56.297Z,87
2017-12-17T01:07:03.106Z,86.6
2017-12-17T01:08:06.517Z,86.7
2017-12-17T01:09:09.940Z,86.8
2017-12-17T01:10:13.401Z,86.8
2017-12-17T01:11:16.820Z,86.7
2017-12-17T01:12:20.268Z,86.5
2017-12-17T01:13:24.590Z,86.7
2017-12-17T01:14:27.995Z,87
2017-12-17T01:15:31.422Z,86
2017-12-17T01:16:35.156Z,86.1
2017-12-17T01:17:42.069Z,86.2
2017-12-17T01:18:45.492Z,85.8
2017-12-17T01:19:49.026Z,85.4
2017-12-17T01:20:52.478Z,85.7
2017-12-17T01:21:56.083Z,85.3
2017-12-17T01:22:59.667Z,85.3
2017-12-17T01:24:03.082Z,85
2017-12-17T01:25:07.024Z,85.2
2017-12-17T01:26:10.433Z,85.5
2017-12-17T01:27:13.833Z,85.7
2017-12-17T01:28:23.993Z,85.6
2017-12-17T01:29:27.453Z,85.8
2017-12-17T01:30:31.779Z,85.9
2017-12-17T01:31:35.169Z,85.7
2017-12-17T01:32:38.606Z,85.9
2017-12-17T01:33:41.976Z,85.9
2017-12-17T01:34:45.362Z,85.9
2017-12-17T01:35:48.649Z,86
2017-12-17T01:36:52.140Z,85.8
2017-12-17T01:37:56.573Z,85.9
2017-12-17T01:39:04.350Z,86.1
2017-12-17T01:40:07.717Z,86.2
2017-12-17T01:41:12.158Z,85.8
2017-12-17T01:42:15.584Z,86.6
2017-12-17T01:43:18.938Z,85.7
2017-12-17T01:44:22.337Z,85.7
2017-12-17T01:45:29.500Z,86
2017-12-17T01:46:32.972Z,85.8
2017-12-17T01:47:36.332Z,86
2017-12-17T01:48:40.679Z,86
2017-12-17T01:49:48.333Z,85.9
2017-12-17T01:50:52.286Z,85.9
2017-12-17T01:51:55.723Z,86
2017-12-17T01:52:59.095Z,86.1
2017-12-17T01:54:02.827Z,85.9
2017-12-17T01:55:06.143Z,86.1
2017-12-17T01:56:09.593Z,86
2017-12-17T01:57:12.946Z,86
2017-12-17T01:58:19.414Z,85.9
2017-12-17T01:59:22.886Z,86.7
2017-12-17T02:00:29.618Z,86.1
2017-12-17T02:01:33.109Z,86.4
2017-12-17T02:02:37.270Z,86.2
2017-12-17T02:03:40.701Z,86.2
2017-12-17T02:04:44.112Z,86
2017-12-17T02:05:48.338Z,86
2017-12-17T02:06:51.914Z,86.1
2017-12-17T02:07:55.287Z,86
2017-12-17T02:08:59.260Z,86.2
2017-12-17T02:10:02.734Z,86.2
2017-12-17T02:11:09.810Z,86.3
2017-12-17T02:12:13.198Z,86.2
2017-12-17T02:13:16.645Z,86.2
2017-12-17T02:14:20.012Z,86.4
2017-12-17T02:15:24.226Z,86.4
2017-12-17T02:16:27.717Z,86.5
2017-12-17T02:17:32.496Z,86.5
2017-12-17T02:18:35.948Z,86.7
2017-12-17T02:19:39.486Z,86.9
2017-12-17T02:20:43.060Z,87.1
2017-12-17T02:21:50.103Z,87.4
2017-12-17T02:22:53.955Z,87.7
2017-12-17T02:23:57.734Z,87.8
2017-12-17T02:25:01.157Z,87.8
2017-12-17T02:26:04.650Z,87.8
2017-12-17T02:27:08.097Z,88.2
2017-12-17T02:28:11.452Z,88.4
2017-12-17T02:29:14.986Z,88.5
2017-12-17T02:30:18.288Z,88.9
2017-12-17T02:31:21.722Z,88.9
2017-12-17T02:32:28.779Z,89
2017-12-17T02:33:32.977Z,89.2
2017-12-17T02:34:36.395Z,89
2017-12-17T02:35:40.443Z,88.8
2017-12-17T02:36:43.902Z,88.7
2017-12-17T02:37:47.276Z,89.1
2017-12-17T02:38:50.624Z,89
2017-12-17T02:39:54.086Z,89
2017-12-17T02:40:57.459Z,89.2
2017-12-17T02:42:00.930Z,89.1
2017-12-17T02:43:08.949Z,89
2017-12-17T02:44:12.966Z,89
2017-12-17T02:45:16.442Z,89.1
2017-12-17T02:46:19.848Z,89
2017-12-17T02:47:23.591Z,89.1
2017-12-17T02:48:26.971Z,89.9
2017-12-17T02:49:30.572Z,89.2
2017-12-17T02:50:34.235Z,89.1
2017-12-17T02:51:38.596Z,89.1
2017-12-17T02:52:42.255Z,89.4
2017-12-17T02:53:49.176Z,89.3
2017-12-17T02:54:53.766Z,89.4
2017-12-17T02:55:57.216Z,89.4
2017-12-17T02:57:00.712Z,89.6
2017-12-17T02:58:03.900Z,89.5
2017-12-17T02:59:07.357Z,89.2
2017-12-17T03:00:10.645Z,89.2
2017-12-17T03:01:14.552Z,89.2
2017-12-17T03:02:17.863Z,89.1
2017-12-17T03:03:22.140Z,89.1
2017-12-17T03:04:28.161Z,89
2017-12-17T03:05:31.592Z,89
2017-12-17T03:06:35.780Z,88.9
2017-12-17T03:07:39.952Z,89.2
2017-12-17T03:08:44.007Z,89.2
2017-12-17T03:09:47.399Z,89.2
2017-12-17T03:10:50.805Z,89
2017-12-17T03:11:54.363Z,89.1
2017-12-17T03:12:57.974Z,89.3
2017-12-17T03:14:02.164Z,90
2017-12-17T03:15:10.104Z,89.5
2017-12-17T03:16:13.402Z,89.5
2017-12-17T03:17:16.710Z,89.5
2017-12-17T03:18:20.132Z,89.4
2017-12-17T03:19:23.764Z,89.4
2017-12-17T03:20:27.169Z,89.5
2017-12-17T03:21:30.708Z,89.5
2017-12-17T03:22:34.141Z,89.6
2017-12-17T03:23:37.588Z,89.7
2017-12-17T03:24:41.116Z,89.6
2017-12-17T03:25:48.128Z,89.5
2017-12-17T03:26:51.743Z,89.7
2017-12-17T03:27:55.165Z,89.5
2017-12-17T03:28:58.463Z,89.7
2017-12-17T03:30:01.982Z,89.5
2017-12-17T03:31:05.124Z,89.5
2017-12-17T03:32:08.503Z,89.5
2017-12-17T03:33:11.878Z,89.5
2017-12-17T03:34:15.283Z,89.7
2017-12-17T03:35:18.920Z,89.7
2017-12-17T03:36:25.866Z,89.4
2017-12-17T03:37:29.437Z,89.5
2017-12-17T03:38:32.780Z,89.7
2017-12-17T03:39:36.348Z,89.7
2017-12-17T03:40:39.774Z,89.6
2017-12-17T03:41:43.129Z,89.1
2017-12-17T03:42:46.538Z,89.2
2017-12-17T03:43:50.023Z,89.2
2017-12-17T03:44:53.363Z,89.3
2017-12-17T03:45:57.020Z,89.3
2017-12-17T03:47:03.816Z,89.4
2017-12-17T03:48:07.168Z,89.2
2017-12-17T03:49:11.132Z,89.2
2017-12-17T03:50:14.598Z,89.1
2017-12-17T03:51:18.312Z,89.1
2017-12-17T03:52:21.719Z,88.9
2017-12-17T03:53:28.348Z,88.9
2017-12-17T03:54:31.658Z,88.9
2017-12-17T03:55:35.929Z,88.5
2017-12-17T03:56:39.381Z,88.5
2017-12-17T03:57:46.497Z,88.5
2017-12-17T03:58:49.785Z,88.6
2017-12-17T03:59:53.244Z,88.4
2017-12-17T04:00:56.380Z,88.4
2017-12-17T04:01:59.869Z,88.4
2017-12-17T04:03:03.311Z,88.4
2017-12-17T04:04:06.634Z,88.4
2017-12-17T04:05:10.195Z,89.1
2017-12-17T04:06:13.697Z,88.5
2017-12-17T04:07:17.466Z,88.5
2017-12-17T04:08:23.983Z,88.3
2017-12-17T04:09:27.570Z,88.2
2017-12-17T04:10:31.749Z,88.1
2017-12-17T04:11:35.045Z,88.1
2017-12-17T04:12:38.579Z,88
2017-12-17T04:13:41.969Z,88
2017-12-17T04:14:45.467Z,88
2017-12-17T04:15:48.966Z,88.1
2017-12-17T04:16:52.447Z,88.1
2017-12-17T04:17:56.150Z,88
2017-12-17T04:19:03.091Z,88.1
2017-12-17T04:20:06.276Z,88.3
2017-12-17T04:21:09.598Z,88.5
2017-12-17T04:22:13.451Z,88.9
2017-12-17T04:23:17.461Z,88.9
2017-12-17T04:24:20.876Z,89
2017-12-17T04:25:24.361Z,89.2
2017-12-17T04:26:28.447Z,89.3
2017-12-17T04:27:31.870Z,89.5
2017-12-17T04:28:35.648Z,89.4
2017-12-17T04:29:43.239Z,89.6
2017-12-17T04:30:47.276Z,89.4
2017-12-17T04:31:50.533Z,89.6
2017-12-17T04:32:53.973Z,89.4
2017-12-17T04:33:57.792Z,89.3
2017-12-17T04:35:02.021Z,89.3
2017-12-17T04:36:05.371Z,89.2
2017-12-17T04:37:08.845Z,89.3
2017-12-17T04:38:12.318Z,89.3
2017-12-17T04:39:15.813Z,89.4
2017-12-17T04:40:24.234Z,89.5
2017-12-17T04:41:27.547Z,89.4
2017-12-17T04:42:30.899Z,89.6
2017-12-17T04:43:34.531Z,89.4
2017-12-17T04:44:38.098Z,89.4
2017-12-17T04:45:41.556Z,89.4
2017-12-17T04:46:44.716Z,89.2
2017-12-17T04:47:47.937Z,89.3
2017-12-17T04:48:51.699Z,89.3
2017-12-17T04:49:55.290Z,89.4
2017-12-17T04:51:02.819Z,89.4
2017-12-17T04:52:06.180Z,89.3
2017-12-17T04:53:09.663Z,89.4
2017-12-17T04:54:12.594Z,89.5
2017-12-17T04:55:16.076Z,89.6
2017-12-17T04:56:19.445Z,89.4
2017-12-17T04:57:23.520Z,89.5
2017-12-17T04:58:27.552Z,89.3
2017-12-17T04:59:30.863Z,89.4
2017-12-17T05:00:35.145Z,89.3
2017-12-17T05:01:42.903Z,89.4
2017-12-17T05:02:46.381Z,89.3
2017-12-17T05:03:49.608Z,89.3
2017-12-17T05:04:54.817Z,89.2
2017-12-17T05:05:58.634Z,89.2
2017-12-17T05:07:02.128Z,89
2017-12-17T05:08:05.544Z,89
2017-12-17T05:09:09.326Z,89.1
2017-12-17T05:10:12.939Z,89
2017-12-17T05:11:16.645Z,88.8
2017-12-17T05:12:23.450Z,88.9
2017-12-17T05:13:26.742Z,88.9
2017-12-17T05:14:33.044Z,88.8
2017-12-17T05:15:36.089Z,88.8
2017-12-17T05:16:40.241Z,88.6
2017-12-17T05:17:43.503Z,88.5
2017-12-17T05:18:46.889Z,88.4
2017-12-17T05:19:52.343Z,88.5
2017-12-17T05:20:55.823Z,88.6
2017-12-17T05:21:59.296Z,88.3
2017-12-17T05:23:06.187Z,88.5
2017-12-17T05:24:09.244Z,88.4
2017-12-17T05:25:13.572Z,88.3
2017-12-17T05:26:17.654Z,88.4
2017-12-17T05:27:22.155Z,88.4
2017-12-17T05:28:25.568Z,88.3
2017-12-17T05:29:28.802Z,88.4
2017-12-17T05:30:32.073Z,88.1
2017-12-17T05:31:36.655Z,88.3
2017-12-17T05:32:41.236Z,88.1
2017-12-17T05:33:48.638Z,88.1
2017-12-17T05:34:52.163Z,88.1
2017-12-17T05:35:55.630Z,88.2
2017-12-17T05:36:59.421Z,87.8
2017-12-17T05:38:03.498Z,88
2017-12-17T05:39:06.912Z,88.1
2017-12-17T05:40:11.769Z,88.2
2017-12-17T05:41:16.581Z,88.3
2017-12-17T05:42:20.668Z,88.2
2017-12-17T05:43:25.273Z,88.4
2017-12-17T05:44:32.862Z,88.4
2017-12-17T05:45:36.882Z,88.4
2017-12-17T05:46:41.124Z,88.3
2017-12-17T05:47:45.340Z,88.3
2017-12-17T05:48:49.834Z,88.3
2017-12-17T05:49:53.185Z,88.7
2017-12-17T05:50:57.303Z,88.1
2017-12-17T05:52:01.392Z,88
2017-12-17T05:53:05.774Z,88
2017-12-17T05:54:09.174Z,87.9
2017-12-17T05:55:16.043Z,88
2017-12-17T05:56:19.481Z,88
2017-12-17T05:57:22.719Z,88
2017-12-17T05:58:26.585Z,88
2017-12-17T05:59:31.024Z,88.1
2017-12-17T06:00:35.399Z,88.1
2017-12-17T06:01:38.931Z,88
2017-12-17T06:02:43.217Z,88.1
2017-12-17T06:03:46.608Z,88
2017-12-17T06:04:50.218Z,88
2017-12-17T06:05:56.927Z,87.8
2017-12-17T06:07:00.201Z,88
2017-12-17T06:08:03.671Z,88.1
2017-12-17T06:09:07.121Z,88.2
2017-12-17T06:10:11.575Z,88.2
2017-12-17T06:11:14.974Z,88.2
2017-12-17T06:12:20.637Z,88.1
2017-12-17T06:13:24.523Z,87.8
2017-12-17T06:14:28.030Z,87.8
2017-12-17T06:15:31.996Z,87.8
2017-12-17T06:16:40.593Z,88.2
2017-12-17T06:17:45.441Z,88
2017-12-17T06:18:50.768Z,87.9
2017-12-17T06:19:54.079Z,88
2017-12-17T06:20:58.242Z,88
2017-12-17T06:22:03.269Z,88
2017-12-17T06:23:06.602Z,88.2
2017-12-17T06:24:10.018Z,87.9
2017-12-17T06:25:15.154Z,88
2017-12-17T06:26:18.588Z,88.2
2017-12-17T06:27:24.692Z,88.1
2017-12-17T06:28:27.986Z,88.1
2017-12-17T06:29:32.004Z,88.3
2017-12-17T06:30:35.244Z,88.2
2017-12-17T06:31:40.715Z,88.2
2017-12-17T06:32:46.123Z,88.3
2017-12-17T06:33:49.519Z,88.5
2017-12-17T06:34:52.511Z,88.3
2017-12-17T06:35:56.842Z,88.3
2017-12-17T06:37:00.374Z,88.3
2017-12-17T06:38:08.069Z,88.4
2017-12-17T06:39:13.716Z,88.4
2017-12-17T06:40:17.060Z,88.6
2017-12-17T06:41:20.306Z,88.4
2017-12-17T06:42:23.353Z,88.4
2017-12-17T06:43:26.867Z,88.4
2017-12-17T06:44:30.505Z,88.3
2017-12-17T06:45:34.091Z,88.3
2017-12-17T06:46:37.414Z,88.3
2017-12-17T06:47:41.275Z,88.3
2017-12-17T06:48:51.990Z,88.5
2017-12-17T06:49:55.925Z,88.4
2017-12-17T06:51:00.092Z,88.4
2017-12-17T06:52:03.470Z,88.6
2017-12-17T06:53:06.692Z,88.3
2017-12-17T06:54:10.040Z,88.4
2017-12-17T06:55:14.486Z,88.3
2017-12-17T06:56:17.800Z,88.3
2017-12-17T06:57:22.071Z,88.3
2017-12-17T06:58:25.674Z,88.4
2017-12-17T06:59:32.500Z,88.3
2017-12-17T07:00:37.081Z,88.2
2017-12-17T07:01:40.451Z,88.2
2017-12-17T07:02:43.784Z,88.3
2017-12-17T07:03:47.261Z,88.1
2017-12-17T07:04:51.343Z,88.3
2017-12-17T07:05:56.578Z,88.3
2017-12-17T07:07:00.610Z,88.4
2017-12-17T07:08:04.300Z,88.2
2017-12-17T07:09:08.512Z,88.1
2017-12-17T07:10:16.584Z,88.1
2017-12-17T07:11:21.850Z,88.3
2017-12-17T07:12:25.087Z,88.4
2017-12-17T07:13:28.321Z,88.2
2017-12-17T07:14:31.739Z,88.2
2017-12-17T07:15:34.873Z,88.4
2017-12-17T07:16:38.364Z,88.5
2017-12-17T07:17:41.941Z,88.6
2017-12-17T07:18:46.559Z,88.3
2017-12-17T07:19:51.191Z,88.1
2017-12-17T07:20:59.911Z,88.3
2017-12-17T07:22:03.200Z,88.4
2017-12-17T07:23:06.381Z,88.5
2017-12-17T07:24:10.553Z,88.4
2017-12-17T07:25:14.544Z,88.2
2017-12-17T07:26:18.506Z,88.2
2017-12-17T07:27:22.043Z,88.2
2017-12-17T07:28:25.444Z,88.1
2017-12-17T07:29:28.698Z,88.1
2017-12-17T07:30:32.806Z,88.3
2017-12-17T07:31:39.145Z,88.4
2017-12-17T07:32:43.450Z,88.5
2017-12-17T07:33:46.822Z,88.6
2017-12-17T07:34:49.976Z,88.6
2017-12-17T07:35:53.692Z,88.5
2017-12-17T07:36:57.159Z,88.7
2017-12-17T07:38:00.360Z,88.7
2017-12-17T07:39:03.580Z,88.7
2017-12-17T07:40:07.546Z,88.5
2017-12-17T07:41:10.902Z,88.3
2017-12-17T07:42:17.351Z,88.3
2017-12-17T07:43:20.772Z,88.5
2017-12-17T07:44:25.351Z,88.4
2017-12-17T07:45:29.213Z,88.3
2017-12-17T07:46:32.932Z,88.3
2017-12-17T07:47:36.275Z,88.3
2017-12-17T07:48:39.722Z,88.3
2017-12-17T07:49:43.089Z,88.1
2017-12-17T07:50:46.561Z,88.3
2017-12-17T07:51:50.126Z,88.3
2017-12-17T07:52:57.626Z,88.3
2017-12-17T07:54:00.853Z,88.2
2017-12-17T07:55:04.203Z,88.2
2017-12-17T07:56:07.610Z,88.3
2017-12-17T07:57:11.052Z,88.2
2017-12-17T07:58:14.950Z,88.2
2017-12-17T07:59:18.980Z,88.1
2017-12-17T08:00:22.396Z,88.2
2017-12-17T08:01:25.695Z,88.3
2017-12-17T08:02:29.398Z,88.4
2017-12-17T08:03:36.511Z,88.4
2017-12-17T08:04:40.028Z,88.6
2017-12-17T08:05:43.553Z,88.6
2017-12-17T08:06:47.047Z,88.3
2017-12-17T08:07:51.845Z,88.2
2017-12-17T08:08:55.850Z,88.4
2017-12-17T08:09:59.287Z,88.6
2017-12-17T08:11:02.453Z,88.6
2017-12-17T08:12:05.830Z,89.5
2017-12-17T08:13:09.681Z,88.8
2017-12-17T08:14:15.842Z,88.9
2017-12-17T08:15:19.502Z,89
2017-12-17T08:16:23.562Z,89.2
2017-12-17T08:17:27.007Z,89.4
2017-12-17T08:18:30.684Z,89.3
2017-12-17T08:19:34.199Z,89.2
2017-12-17T08:20:37.333Z,88.7
2017-12-17T08:21:40.946Z,88.6
2017-12-17T08:22:44.494Z,88.3
2017-12-17T08:23:47.695Z,88
2017-12-17T08:24:53.949Z,88.2
2017-12-17T08:25:58.602Z,88.2
2017-12-17T08:27:02.098Z,88.8
2017-12-17T08:28:05.337Z,88.8
2017-12-17T08:29:09.241Z,87.8
2017-12-17T08:30:12.603Z,87.6
2017-12-17T08:31:16.006Z,87.9
2017-12-17T08:32:19.338Z,87.8
2017-12-17T08:33:23.504Z,87.6
2017-12-17T08:34:27.028Z,87.7
2017-12-17T08:35:34.924Z,88.1
2017-12-17T08:36:38.470Z,87.9
2017-12-17T08:37:41.724Z,87.8
2017-12-17T08:38:45.098Z,87.8
2017-12-17T08:39:48.261Z,87.8
2017-12-17T08:40:51.735Z,87.8
2017-12-17T08:41:55.111Z,88.1
2017-12-17T08:43:02.100Z,88
2017-12-17T08:44:06.231Z,88.1
2017-12-17T08:45:09.578Z,88.1
2017-12-17T08:46:16.590Z,88.1
2017-12-17T08:47:20.692Z,88
2017-12-17T08:48:24.273Z,88.1
2017-12-17T08:49:29.434Z,88.1
2017-12-17T08:50:34.437Z,88.1
2017-12-17T08:51:37.963Z,88
2017-12-17T08:52:44.390Z,88.1
2017-12-17T08:53:48.605Z,88.1
2017-12-17T08:54:51.950Z,88.2
2017-12-17T08:55:55.267Z,88.4
2017-12-17T08:57:02.121Z,88.1
2017-12-17T08:58:05.548Z,88.3
2017-12-17T08:59:11.913Z,88.7
2017-12-17T09:00:15.262Z,88.4
2017-12-17T09:01:18.397Z,88.7
2017-12-17T09:02:22.670Z,88.7
2017-12-17T09:03:25.812Z,88.5
2017-12-17T09:04:29.263Z,87.8
2017-12-17T09:05:32.619Z,88.2
2017-12-17T09:06:36.666Z,88.3
2017-12-17T09:07:48.181Z,88.8
2017-12-17T09:08:53.747Z,88.3
2017-12-17T09:09:57.939Z,88.5
2017-12-17T09:11:08.003Z,88.9
2017-12-17T09:12:16.868Z,88.7
2017-12-17T09:13:20.024Z,88.6
2017-12-17T09:14:25.873Z,88.7
2017-12-17T09:15:32.331Z,88.8
2017-12-17T09:16:35.771Z,88.6
2017-12-17T09:17:40.391Z,88.4
2017-12-17T09:18:52.538Z,88.4
2017-12-17T09:19:59.339Z,88.6
2017-12-17T09:21:02.808Z,88.7
2017-12-17T09:22:09.449Z,88.7
2017-12-17T09:23:15.055Z,88.4
2017-12-17T09:24:19.062Z,88.4
2017-12-17T09:25:22.547Z,88.2
2017-12-17T09:26:27.617Z,88.3
2017-12-17T09:27:32.339Z,88.5
2017-12-17T09:28:37.714Z,88.2
2017-12-17T09:29:46.726Z,88.1
2017-12-17T09:30:50.126Z,88.1
2017-12-17T09:31:53.595Z,88.1
2017-12-17T09:32:56.982Z,88.2
2017-12-17T09:34:00.441Z,88.3
2017-12-17T09:35:05.038Z,88.3
2017-12-17T09:36:08.519Z,88.4
2017-12-17T09:37:12.040Z,88.6
2017-12-17T09:38:15.500Z,88.8
2017-12-17T09:39:19.097Z,88.8
2017-12-17T09:40:27.177Z,88.8
2017-12-17T09:41:31.248Z,88.9
2017-12-17T09:42:35.394Z,88.9
2017-12-17T09:43:38.830Z,88.5
2017-12-17T09:44:44.165Z,88.1
2017-12-17T09:45:47.645Z,88.1
2017-12-17T09:46:51.396Z,87.7
2017-12-17T09:47:56.037Z,87.7
2017-12-17T09:49:00.824Z,87.8
2017-12-17T09:50:05.016Z,87.7
2017-12-17T09:51:13.650Z,87.5
2017-12-17T09:52:17.279Z,87.6
2017-12-17T09:53:20.948Z,87.6
2017-12-17T09:54:25.287Z,87.5
2017-12-17T09:55:39.308Z,87.4
2017-12-17T09:56:55.470Z,87.4
2017-12-17T09:58:01.621Z,87.5
2017-12-17T09:59:08.794Z,86.9
2017-12-17T10:00:16.886Z,87
2017-12-17T10:01:33.880Z,87.1
2017-12-17T10:02:45.909Z,87.1
2017-12-17T10:03:51.545Z,86.8
2017-12-17T10:04:55.324Z,86.8
2017-12-17T10:06:01.965Z,86.7
2017-12-17T10:07:15.759Z,86.6
2017-12-17T10:08:20.772Z,86.1
2017-12-17T10:09:26.559Z,86.5
2017-12-17T10:10:40.568Z,86.6
2017-12-17T10:11:44.157Z,86.4
2017-12-17T10:12:57.633Z,86.4
2017-12-17T10:14:13.336Z,86.4
2017-12-17T10:15:20.539Z,86.5
2017-12-17T10:16:33.769Z,86.4
2017-12-17T10:17:37.241Z,86.5
2017-12-17T10:18:42.187Z,86.6
2017-12-17T10:19:46.222Z,86.6
2017-12-17T10:20:50.973Z,86
2017-12-17T10:21:54.425Z,85.7
2017-12-17T10:22:59.232Z,85.8
2017-12-17T10:24:04.184Z,86
2017-12-17T10:25:11.728Z,86.2
2017-12-17T10:26:17.258Z,86.1
2017-12-17T10:27:21.217Z,86.2
2017-12-17T10:28:25.846Z,86.2
2017-12-17T10:29:30.791Z,86.5
2017-12-17T10:30:34.179Z,86.5
2017-12-17T10:31:38.747Z,86.1
2017-12-17T10:32:42.103Z,86.2
2017-12-17T10:33:46.484Z,86.6
2017-12-17T10:34:50.015Z,86.6
2017-12-17T10:35:57.921Z,86.6
2017-12-17T10:37:02.149Z,86.8
2017-12-17T10:38:06.560Z,86.8
2017-12-17T10:39:10.722Z,86.6
2017-12-17T10:40:14.003Z,86.7
2017-12-17T10:41:18.396Z,86.6
2017-12-17T10:42:22.803Z,86.7
2017-12-17T10:43:26.407Z,86.6
2017-12-17T10:44:30.010Z,87.1
2017-12-17T10:45:34.547Z,86.6
2017-12-17T10:46:41.558Z,86.8
2017-12-17T10:47:46.731Z,87
2017-12-17T10:48:50.988Z,87
2017-12-17T10:49:54.444Z,87.1
2017-12-17T10:50:59.134Z,87
2017-12-17T10:52:03.221Z,87
2017-12-17T10:53:06.817Z,87.2
2017-12-17T10:54:11.502Z,87.5
2017-12-17T10:55:15.041Z,87.5
2017-12-17T10:56:18.353Z,87.8
2017-12-17T10:57:25.705Z,88
2017-12-17T10:58:29.206Z,87.9
2017-12-17T10:59:33.379Z,88.1
2017-12-17T11:00:37.441Z,88.1
2017-12-17T11:01:41.026Z,87.8
2017-12-17T11:02:45.867Z,87.3
2017-12-17T11:03:49.381Z,87.7
2017-12-17T11:04:53.825Z,88.8
2017-12-17T11:05:57.964Z,88.1
2017-12-17T11:07:01.524Z,88
2017-12-17T11:08:09.453Z,88.3
2017-12-17T11:09:12.771Z,88.2
2017-12-17T11:10:16.514Z,88.1
2017-12-17T11:11:19.899Z,88
2017-12-17T11:12:23.955Z,87.7
2017-12-17T11:13:27.460Z,87.2
2017-12-17T11:14:31.817Z,87.4
2017-12-17T11:15:36.022Z,87.4
2017-12-17T11:16:39.382Z,87.1
2017-12-17T11:17:43.034Z,86.6
2017-12-17T11:18:52.103Z,87.3
2017-12-17T11:19:55.568Z,86.3
2017-12-17T11:20:59.751Z,86.2
2017-12-17T11:22:03.772Z,85.8
2017-12-17T11:23:07.198Z,85.8
2017-12-17T11:24:10.610Z,85.5
2017-12-17T11:25:14.072Z,85.6
2017-12-17T11:26:17.506Z,85.8
2017-12-17T11:27:20.927Z,85.8
2017-12-17T11:28:25.062Z,85.3
2017-12-17T11:29:31.921Z,85.4
2017-12-17T11:30:35.309Z,85.4
2017-12-17T11:31:38.884Z,85.5
2017-12-17T11:32:42.458Z,85.4
2017-12-17T11:33:46.024Z,85.4
2017-12-17T11:34:50.245Z,85.6
2017-12-17T11:35:54.428Z,85.6
2017-12-17T11:36:58.559Z,85.3
2017-12-17T11:38:02.051Z,85.9
2017-12-17T11:39:05.633Z,85.4
2017-12-17T11:40:12.689Z,85.6
2017-12-17T11:41:16.495Z,85.8
2017-12-17T11:42:20.074Z,85.9
2017-12-17T11:43:23.489Z,85.7
2017-12-17T11:44:26.990Z,85
2017-12-17T11:45:30.501Z,84.3
2017-12-17T11:46:34.435Z,84.2
2017-12-17T11:47:37.887Z,84.4
2017-12-17T11:48:41.937Z,84.6
2017-12-17T11:49:45.498Z,84.2
2017-12-17T11:50:53.357Z,85.5
2017-12-17T11:51:57.412Z,86.3
2017-12-17T11:53:01.712Z,85
2017-12-17T11:54:05.153Z,85.8
2017-12-17T11:55:08.620Z,85.8
2017-12-17T11:56:12.073Z,86
2017-12-17T11:57:15.526Z,86
2017-12-17T11:58:18.795Z,85.7
2017-12-17T11:59:22.965Z,84.8
2017-12-17T12:00:26.584Z,85.3
2017-12-17T12:01:33.787Z,85.5
2017-12-17T12:02:37.416Z,85.5
2017-12-17T12:03:40.850Z,85.5
2017-12-17T12:04:44.200Z,85.1
2017-12-17T12:05:48.131Z,85.2
2017-12-17T12:06:52.205Z,84.9
2017-12-17T12:07:55.657Z,85.5
2017-12-17T12:08:59.187Z,85.7
2017-12-17T12:10:02.809Z,85.3
2017-12-17T12:11:06.405Z,85.7
2017-12-17T12:12:13.462Z,86.2
2017-12-17T12:13:18.446Z,86.3
2017-12-17T12:14:21.921Z,86.2
2017-12-17T12:15:25.218Z,86.1
2017-12-17T12:16:30.616Z,86.7
2017-12-17T12:17:33.959Z,86.7
2017-12-17T12:18:37.361Z,86.6
2017-12-17T12:19:40.827Z,86.7
2017-12-17T12:20:44.929Z,86.9
2017-12-17T12:21:48.372Z,86.8
2017-12-17T12:22:55.993Z,86.6
2017-12-17T12:23:59.480Z,86.4
2017-12-17T12:25:03.401Z,86.6
2017-12-17T12:26:07.800Z,86.3
2017-12-17T12:27:11.320Z,86.2
2017-12-17T12:28:15.468Z,86.4
2017-12-17T12:29:19.122Z,86.5
2017-12-17T12:30:24.411Z,86.3
2017-12-17T12:31:27.971Z,86.2
2017-12-17T12:32:31.694Z,86
2017-12-17T12:33:39.227Z,86.2
2017-12-17T12:34:42.769Z,86.5
2017-12-17T12:35:46.220Z,87.1
2017-12-17T12:36:49.812Z,86.6
2017-12-17T12:37:53.277Z,86.5
2017-12-17T12:38:56.747Z,86.6
2017-12-17T12:40:00.759Z,86.7
2017-12-17T12:41:04.212Z,86.8
2017-12-17T12:42:08.080Z,86.9
2017-12-17T12:43:12.742Z,86.1
2017-12-17T12:44:19.741Z,86.4
2017-12-17T12:45:23.327Z,86.5
2017-12-17T12:46:26.949Z,86.7
2017-12-17T12:47:30.352Z,86.9
2017-12-17T12:48:33.841Z,86.8
2017-12-17T12:49:37.306Z,87.1
2017-12-17T12:50:40.666Z,87.4
2017-12-17T12:51:43.965Z,87.4
2017-12-17T12:52:47.525Z,87.5
2017-12-17T12:53:50.955Z,87.5
2017-12-17T12:54:59.363Z,87.5
2017-12-17T12:56:02.921Z,87.6
2017-12-17T12:57:07.004Z,87.6
2017-12-17T12:58:10.523Z,87.5
2017-12-17T12:59:13.899Z,87.5
2017-12-17T13:00:17.320Z,87.5
2017-12-17T13:01:20.603Z,87.7
2017-12-17T13:02:25.406Z,87.7
2017-12-17T13:03:28.952Z,88
2017-12-17T13:04:32.495Z,87.6
2017-12-17T13:05:39.256Z,87.7
2017-12-17T13:06:43.263Z,87.7
2017-12-17T13:07:47.316Z,87.7
2017-12-17T13:08:51.955Z,87.5
2017-12-17T13:09:56.976Z,87.4
2017-12-17T13:11:00.499Z,87.4
2017-12-17T13:12:04.783Z,87.4
2017-12-17T13:13:08.850Z,87.4
2017-12-17T13:14:12.609Z,87.2
2017-12-17T13:15:16.130Z,86.9
2017-12-17T13:16:23.585Z,87.1
2017-12-17T13:17:27.669Z,87.2
2017-12-17T13:18:31.108Z,86.9
2017-12-17T13:19:34.630Z,87
2017-12-17T13:20:37.996Z,87
2017-12-17T13:21:42.186Z,86.6
2017-12-17T13:22:45.690Z,86.6
2017-12-17T13:23:49.321Z,86.2
2017-12-17T13:24:53.497Z,86.4
2017-12-17T13:25:59.104Z,86
2017-12-17T13:27:05.941Z,85.8
2017-12-17T13:28:10.236Z,85.4
2017-12-17T13:29:13.736Z,85.6
2017-12-17T13:30:18.228Z,85
2017-12-17T13:31:21.701Z,85.3
2017-12-17T13:32:25.072Z,84.9
2017-12-17T13:33:28.477Z,85.4
2017-12-17T13:34:32.058Z,85.5
2017-12-17T13:35:35.346Z,85.5
2017-12-17T13:36:38.772Z,85.4
2017-12-17T13:37:46.368Z,85.6
2017-12-17T13:38:49.729Z,85.8
2017-12-17T13:39:53.194Z,85.3
2017-12-17T13:40:56.709Z,86
2017-12-17T13:42:00.157Z,85.6
2017-12-17T13:43:03.597Z,85.9
2017-12-17T13:44:07.329Z,86
2017-12-17T13:45:11.034Z,85.7
2017-12-17T13:46:16.354Z,85.7
2017-12-17T13:47:22.211Z,84.9
2017-12-17T13:48:33.787Z,85.7
2017-12-17T13:49:40.777Z,85.7
2017-12-17T13:50:47.436Z,85.6
2017-12-17T13:51:53.455Z,86.1
2017-12-17T13:53:00.299Z,85.3
2017-12-17T13:54:11.125Z,85.3
2017-12-17T13:55:22.943Z,85.1
2017-12-17T13:56:35.581Z,84.9
2017-12-17T13:57:39.914Z,85.1
2017-12-17T13:58:44.501Z,84.8
2017-12-17T13:59:52.449Z,84.3
2017-12-17T14:00:55.943Z,85
2017-12-17T14:02:00.073Z,84.7
2017-12-17T14:03:04.084Z,84.5
2017-12-17T14:04:07.999Z,84.6
2017-12-17T14:05:12.116Z,84.3
2017-12-17T14:06:17.924Z,83.9
2017-12-17T14:07:21.745Z,84.1
2017-12-17T14:08:25.174Z,83.9
2017-12-17T14:09:28.682Z,83.7
2017-12-17T14:10:35.815Z,84.4
2017-12-17T14:11:39.343Z,84.1
2017-12-17T14:12:42.673Z,84.2
2017-12-17T14:13:47.170Z,83.9
2017-12-17T14:14:51.362Z,84.5
2017-12-17T14:15:54.649Z,84.1
2017-12-17T14:16:57.491Z,84
2017-12-17T14:18:01.137Z,83.6
2017-12-17T14:19:04.721Z,83.6
2017-12-17T14:20:08.267Z,83.8
2017-12-17T14:21:15.077Z,84.2
2017-12-17T14:22:19.390Z,84
2017-12-17T14:23:23.000Z,83.8